sensor_id;sensor_type;location;lat;lon;timestamp;pressure;altitude;pressure_sealevel;temperature;humidity
58771;BME280;44539;42.962;1.596;2022-07-29T06:23:34;97179.22;;;19.22;87.85
58771;BME280;44539;42.962;1.596;2022-07-29T06:25:59;97188.88;;;19.30;87.00
58771;BME280;44539;42.962;1.596;2022-07-29T06:28:25;97196.41;;;19.40;86.09
58771;BME280;44539;42.962;1.596;2022-07-29T06:30:51;97195.56;;;19.39;85.20
58771;BME280;44539;42.962;1.596;2022-07-29T06:33:18;97196.50;;;19.45;86.27
58771;BME280;44539;42.962;1.596;2022-07-29T06:35:44;97207.28;;;19.45;86.67
58771;BME280;44539;42.962;1.596;2022-07-29T06:38:10;97209.38;;;19.43;87.45
58771;BME280;44539;42.962;1.596;2022-07-29T06:40:36;97221.78;;;19.44;86.54
58771;BME280;44539;42.962;1.596;2022-07-29T06:43:20;97199.78;;;19.47;86.63
58771;BME280;44539;42.962;1.596;2022-07-29T06:45:46;97186.91;;;19.49;85.92
58771;BME280;44539;42.962;1.596;2022-07-29T06:48:11;97193.94;;;19.50;85.04
58771;BME280;44539;42.962;1.596;2022-07-29T06:50:36;97201.03;;;19.21;88.69
58771;BME280;44539;42.962;1.596;2022-07-29T06:53:02;97214.03;;;19.05;89.54
58771;BME280;44539;42.962;1.596;2022-07-29T06:55:28;97210.25;;;18.94;90.71
58771;BME280;44539;42.962;1.596;2022-07-29T06:57:53;97198.84;;;18.81;90.95
58771;BME280;44539;42.962;1.596;2022-07-29T07:00:19;97198.63;;;18.82;90.74
58771;BME280;44539;42.962;1.596;2022-07-29T07:02:44;97192.91;;;18.90;92.68
58771;BME280;44539;42.962;1.596;2022-07-29T07:05:10;97179.94;;;18.87;95.63
58771;BME280;44539;42.962;1.596;2022-07-29T07:07:35;97160.63;;;18.90;95.22
58771;BME280;44539;42.962;1.596;2022-07-29T07:10:01;97155.19;;;18.97;95.04
58771;BME280;44539;42.962;1.596;2022-07-29T07:12:26;97171.97;;;18.92;94.71
58771;BME280;44539;42.962;1.596;2022-07-29T07:14:51;97193.50;;;18.92;95.67
58771;BME280;44539;42.962;1.596;2022-07-29T07:17:17;97199.75;;;18.93;95.81
58771;BME280;44539;42.962;1.596;2022-07-29T07:19:42;97195.66;;;19.02;97.13
58771;BME280;44539;42.962;1.596;2022-07-29T07:22:08;97217.94;;;19.09;95.85
58771;BME280;44539;42.962;1.596;2022-07-29T07:24:33;97210.00;;;19.14;97.16
58771;BME280;44539;42.962;1.596;2022-07-29T07:26:58;97197.19;;;18.98;100.00
58771;BME280;44539;42.962;1.596;2022-07-29T07:29:24;97198.25;;;18.97;99.87
58771;BME280;44539;42.962;1.596;2022-07-29T07:31:49;97203.00;;;18.76;100.00
58771;BME280;44539;42.962;1.596;2022-07-29T07:34:15;97207.97;;;18.61;100.00
58771;BME280;44539;42.962;1.596;2022-07-29T07:36:40;97222.53;;;18.53;100.00
58771;BME280;44539;42.962;1.596;2022-07-29T07:39:05;97241.53;;;18.59;100.00
58771;BME280;44539;42.962;1.596;2022-07-29T07:41:31;97245.63;;;18.61;100.00
58771;BME280;44539;42.962;1.596;2022-07-29T07:43:57;97256.53;;;18.66;100.00
58771;BME280;44539;42.962;1.596;2022-07-29T07:46:22;97267.81;;;18.56;100.00
58771;BME280;44539;42.962;1.596;2022-07-29T07:48:48;97288.63;;;18.43;100.00
58771;BME280;44539;42.962;1.596;2022-07-29T07:51:13;97300.50;;;18.35;100.00
58771;BME280;44539;42.962;1.596;2022-07-29T07:53:38;97316.84;;;18.08;100.00
58771;BME280;44539;42.962;1.596;2022-07-29T07:56:04;97319.47;;;17.90;100.00
58771;BME280;44539;42.962;1.596;2022-07-29T07:58:31;97328.13;;;17.92;100.00
58771;BME280;44539;42.962;1.596;2022-07-29T08:00:57;97336.47;;;17.84;100.00
58771;BME280;44539;42.962;1.596;2022-07-29T08:03:22;97337.91;;;17.86;100.00
58771;BME280;44539;42.962;1.596;2022-07-29T08:05:47;97349.63;;;17.92;100.00
58771;BME280;44539;42.962;1.596;2022-07-29T08:08:15;97357.88;;;17.97;100.00
58771;BME280;44539;42.962;1.596;2022-07-29T08:10:41;97367.41;;;17.93;100.00
58771;BME280;44539;42.962;1.596;2022-07-29T08:13:19;97359.75;;;17.97;100.00
58771;BME280;44539;42.962;1.596;2022-07-29T08:15:45;97351.66;;;18.03;100.00
58771;BME280;44539;42.962;1.596;2022-07-29T08:18:11;97356.41;;;18.01;100.00
58771;BME280;44539;42.962;1.596;2022-07-29T08:20:37;97355.06;;;17.79;100.00
58771;BME280;44539;42.962;1.596;2022-07-29T08:23:05;97348.91;;;17.71;100.00
58771;BME280;44539;42.962;1.596;2022-07-29T08:25:32;97346.00;;;17.73;100.00
58771;BME280;44539;42.962;1.596;2022-07-29T08:27:58;97327.00;;;17.74;100.00
58771;BME280;44539;42.962;1.596;2022-07-29T08:30:24;97312.50;;;17.82;100.00
58771;BME280;44539;42.962;1.596;2022-07-29T08:32:50;97292.13;;;18.00;100.00
58771;BME280;44539;42.962;1.596;2022-07-29T08:35:22;97298.38;;;18.19;100.00
58771;BME280;44539;42.962;1.596;2022-07-29T08:37:48;97288.56;;;18.31;100.00
58771;BME280;44539;42.962;1.596;2022-07-29T08:40:13;97274.06;;;18.32;100.00
58771;BME280;44539;42.962;1.596;2022-07-29T08:42:42;97264.03;;;18.39;100.00
58771;BME280;44539;42.962;1.596;2022-07-29T08:45:08;97259.59;;;18.33;100.00
58771;BME280;44539;42.962;1.596;2022-07-29T08:47:33;97276.75;;;18.32;100.00
58771;BME280;44539;42.962;1.596;2022-07-29T08:50:03;97275.00;;;18.19;100.00
58771;BME280;44539;42.962;1.596;2022-07-29T08:52:32;97284.94;;;18.19;100.00
58771;BME280;44539;42.962;1.596;2022-07-29T08:55:01;97291.25;;;18.31;100.00
58771;BME280;44539;42.962;1.596;2022-07-29T08:57:27;97295.34;;;18.33;100.00
58771;BME280;44539;42.962;1.596;2022-07-29T08:59:54;97324.31;;;18.31;100.00
58771;BME280;44539;42.962;1.596;2022-07-29T09:02:21;97339.13;;;18.15;100.00
58771;BME280;44539;42.962;1.596;2022-07-29T09:04:48;97327.28;;;18.23;100.00
58771;BME280;44539;42.962;1.596;2022-07-29T09:07:18;97305.28;;;18.33;100.00
58771;BME280;44539;42.962;1.596;2022-07-29T09:09:44;97291.53;;;18.23;100.00
58771;BME280;44539;42.962;1.596;2022-07-29T09:12:10;97282.47;;;18.17;100.00
58771;BME280;44539;42.962;1.596;2022-07-29T09:14:39;97300.88;;;18.13;100.00
58771;BME280;44539;42.962;1.596;2022-07-29T09:17:06;97328.44;;;18.09;100.00
58771;BME280;44539;42.962;1.596;2022-07-29T09:19:36;97315.75;;;17.91;100.00
58771;BME280;44539;42.962;1.596;2022-07-29T09:22:05;97315.81;;;17.84;100.00
58771;BME280;44539;42.962;1.596;2022-07-29T09:27:28;97288.97;;;17.78;100.00
58771;BME280;44539;42.962;1.596;2022-07-29T09:30:05;97267.19;;;17.92;100.00
58771;BME280;44539;42.962;1.596;2022-07-29T09:32:32;97262.41;;;17.94;100.00
58771;BME280;44539;42.962;1.596;2022-07-29T09:35:20;97299.78;;;17.96;100.00
58771;BME280;44539;42.962;1.596;2022-07-29T09:37:46;97287.78;;;17.99;100.00
58771;BME280;44539;42.962;1.596;2022-07-29T09:40:30;97280.31;;;18.01;100.00
58771;BME280;44539;42.962;1.596;2022-07-29T09:42:56;97278.69;;;18.00;100.00
58771;BME280;44539;42.962;1.596;2022-07-29T09:45:33;97269.56;;;18.01;100.00
58771;BME280;44539;42.962;1.596;2022-07-29T09:47:59;97264.09;;;17.89;100.00
58771;BME280;44539;42.962;1.596;2022-07-29T09:50:38;97229.66;;;17.72;100.00
58771;BME280;44539;42.962;1.596;2022-07-29T09:53:05;97226.47;;;17.89;100.00
58771;BME280;44539;42.962;1.596;2022-07-29T09:55:30;97216.38;;;18.09;100.00
58771;BME280;44539;42.962;1.596;2022-07-29T09:58:18;97208.47;;;18.14;100.00
58771;BME280;44539;42.962;1.596;2022-07-29T10:00:45;97214.13;;;18.06;100.00
58771;BME280;44539;42.962;1.596;2022-07-29T10:03:12;97224.59;;;18.14;100.00
58771;BME280;44539;42.962;1.596;2022-07-29T10:05:37;97221.97;;;18.26;100.00
58771;BME280;44539;42.962;1.596;2022-07-29T10:08:04;97224.03;;;18.31;100.00
58771;BME280;44539;42.962;1.596;2022-07-29T10:10:31;97213.28;;;18.31;100.00
58771;BME280;44539;42.962;1.596;2022-07-29T10:13:19;97187.41;;;18.30;100.00
58771;BME280;44539;42.962;1.596;2022-07-29T10:15:44;97191.97;;;18.29;100.00
58771;BME280;44539;42.962;1.596;2022-07-29T10:18:12;97183.22;;;18.15;100.00
58771;BME280;44539;42.962;1.596;2022-07-29T10:20:38;97164.56;;;18.21;100.00
58771;BME280;44539;42.962;1.596;2022-07-29T10:23:04;97171.81;;;18.39;100.00
58771;BME280;44539;42.962;1.596;2022-07-29T10:25:30;97184.44;;;18.56;100.00
58771;BME280;44539;42.962;1.596;2022-07-29T10:27:57;97184.66;;;18.55;100.00
58771;BME280;44539;42.962;1.596;2022-07-29T10:30:24;97174.09;;;18.72;100.00
58771;BME280;44539;42.962;1.596;2022-07-29T10:38:58;97185.94;;;19.31;100.00
58771;BME280;44539;42.962;1.596;2022-07-29T10:44:28;97199.16;;;19.75;100.00
58771;BME280;44539;42.962;1.596;2022-07-29T10:46:54;97204.78;;;19.73;96.98
58771;BME280;44539;42.962;1.596;2022-07-29T10:49:23;97200.53;;;19.66;97.89
58771;BME280;44539;42.962;1.596;2022-07-29T10:52:08;97209.44;;;19.54;100.00
58771;BME280;44539;42.962;1.596;2022-07-29T10:54:45;97215.47;;;19.38;100.00
58771;BME280;44539;42.962;1.596;2022-07-29T11:07:36;97194.97;;;19.79;100.00
58771;BME280;44539;42.962;1.596;2022-07-29T11:15:03;97207.63;;;20.02;98.86
58771;BME280;44539;42.962;1.596;2022-07-29T11:20:37;97235.38;;;19.79;100.00
58771;BME280;44539;42.962;1.596;2022-07-29T11:23:25;97235.50;;;19.72;100.00
58771;BME280;44539;42.962;1.596;2022-07-29T11:28:39;97222.28;;;19.83;100.00
58771;BME280;44539;42.962;1.596;2022-07-29T11:31:13;97231.28;;;19.88;100.00
58771;BME280;44539;42.962;1.596;2022-07-29T11:33:38;97237.84;;;19.81;100.00
58771;BME280;44539;42.962;1.596;2022-07-29T11:36:15;97232.69;;;19.79;99.95
58771;BME280;44539;42.962;1.596;2022-07-29T11:38:41;97231.97;;;19.84;100.00
58771;BME280;44539;42.962;1.596;2022-07-29T11:41:26;97232.56;;;19.86;99.87
58771;BME280;44539;42.962;1.596;2022-07-29T11:43:53;97236.09;;;19.86;99.40
58771;BME280;44539;42.962;1.596;2022-07-29T11:49:18;97244.53;;;19.78;98.31
58771;BME280;44539;42.962;1.596;2022-07-29T11:51:52;97261.78;;;19.89;96.51
58771;BME280;44539;42.962;1.596;2022-07-29T11:54:29;97266.63;;;19.68;98.92
58771;BME280;44539;42.962;1.596;2022-07-29T11:56:57;97262.03;;;19.69;93.49
58771;BME280;44539;42.962;1.596;2022-07-29T11:59:22;97263.03;;;19.74;94.16
58771;BME280;44539;42.962;1.596;2022-07-29T12:01:57;97264.38;;;19.65;94.39
58771;BME280;44539;42.962;1.596;2022-07-29T12:04:22;97268.00;;;19.59;94.44
58771;BME280;44539;42.962;1.596;2022-07-29T12:06:55;97275.59;;;19.50;96.55
58771;BME280;44539;42.962;1.596;2022-07-29T12:09:22;97286.78;;;19.35;95.58
58771;BME280;44539;42.962;1.596;2022-07-29T12:11:49;97286.81;;;19.47;94.58
58771;BME280;44539;42.962;1.596;2022-07-29T12:14:25;97282.00;;;19.49;96.11
58771;BME280;44539;42.962;1.596;2022-07-29T12:16:51;97290.41;;;19.41;92.38
58771;BME280;44539;42.962;1.596;2022-07-29T12:19:16;97292.00;;;19.30;94.01
58771;BME280;44539;42.962;1.596;2022-07-29T12:21:45;97294.69;;;19.30;91.75
58771;BME280;44539;42.962;1.596;2022-07-29T12:24:11;97292.09;;;19.24;91.23
58771;BME280;44539;42.962;1.596;2022-07-29T12:26:51;97288.22;;;19.20;90.98
58771;BME280;44539;42.962;1.596;2022-07-29T12:29:18;97290.59;;;19.28;90.86
58771;BME280;44539;42.962;1.596;2022-07-29T12:31:44;97287.69;;;19.29;90.14
58771;BME280;44539;42.962;1.596;2022-07-29T12:34:10;97295.88;;;19.34;93.11
58771;BME280;44539;42.962;1.596;2022-07-29T12:36:37;97298.22;;;19.31;93.16
58771;BME280;44539;42.962;1.596;2022-07-29T12:39:03;97301.59;;;19.26;90.13
58771;BME280;44539;42.962;1.596;2022-07-29T12:41:29;97309.38;;;19.16;91.60
58771;BME280;44539;42.962;1.596;2022-07-29T12:43:54;97309.56;;;19.33;93.23
58771;BME280;44539;42.962;1.596;2022-07-29T12:46:20;97318.81;;;19.25;91.82
58771;BME280;44539;42.962;1.596;2022-07-29T12:48:50;97316.94;;;19.26;92.56
58771;BME280;44539;42.962;1.596;2022-07-29T12:51:16;97316.50;;;19.29;94.03
58771;BME280;44539;42.962;1.596;2022-07-29T12:54:02;97308.16;;;19.30;90.29
58771;BME280;44539;42.962;1.596;2022-07-29T12:56:28;97309.81;;;19.31;89.99
58771;BME280;44539;42.962;1.596;2022-07-29T12:58:53;97312.34;;;19.45;89.80
58771;BME280;44539;42.962;1.596;2022-07-29T13:01:19;97311.53;;;19.44;92.16
58771;BME280;44539;42.962;1.596;2022-07-29T13:03:53;97320.81;;;19.30;90.54
58771;BME280;44539;42.962;1.596;2022-07-29T13:06:33;97324.78;;;19.27;89.87
58771;BME280;44539;42.962;1.596;2022-07-29T13:11:31;97326.19;;;19.30;91.39
58771;BME280;44539;42.962;1.596;2022-07-29T13:13:57;97320.91;;;19.23;90.17
58771;BME280;44539;42.962;1.596;2022-07-29T13:16:23;97331.00;;;19.28;90.49
58771;BME280;44539;42.962;1.596;2022-07-29T13:18:48;97320.22;;;19.28;90.74
58771;BME280;44539;42.962;1.596;2022-07-29T13:21:15;97322.81;;;19.34;89.62
58771;BME280;44539;42.962;1.596;2022-07-29T13:23:41;97329.09;;;19.47;92.28
58771;BME280;44539;42.962;1.596;2022-07-29T13:26:08;97319.34;;;19.46;88.49
58771;BME280;44539;42.962;1.596;2022-07-29T13:28:34;97321.50;;;19.55;90.27
58771;BME280;44539;42.962;1.596;2022-07-29T13:31:00;97325.53;;;19.65;88.88
58771;BME280;44539;42.962;1.596;2022-07-29T13:33:26;97322.72;;;19.90;88.43
58771;BME280;44539;42.962;1.596;2022-07-29T13:35:51;97315.81;;;19.94;87.74
58771;BME280;44539;42.962;1.596;2022-07-29T13:50:35;97315.97;;;20.23;84.53
58771;BME280;44539;42.962;1.596;2022-07-29T13:53:00;97312.59;;;20.27;84.97
58771;BME280;44539;42.962;1.596;2022-07-29T13:55:26;97316.56;;;20.36;84.20
58771;BME280;44539;42.962;1.596;2022-07-29T13:57:51;97317.38;;;20.25;83.09
58771;BME280;44539;42.962;1.596;2022-07-29T14:00:17;97318.19;;;20.26;83.13
58771;BME280;44539;42.962;1.596;2022-07-29T14:02:43;97317.72;;;20.29;85.57
58771;BME280;44539;42.962;1.596;2022-07-29T14:05:09;97313.63;;;20.26;83.53
58771;BME280;44539;42.962;1.596;2022-07-29T14:07:35;97319.16;;;20.31;84.50
58771;BME280;44539;42.962;1.596;2022-07-29T14:10:01;97312.22;;;20.35;83.73
58771;BME280;44539;42.962;1.596;2022-07-29T14:12:26;97308.81;;;20.52;84.79
58771;BME280;44539;42.962;1.596;2022-07-29T14:14:52;97318.78;;;20.87;82.32
58771;BME280;44539;42.962;1.596;2022-07-29T14:17:17;97316.88;;;21.11;79.29
58771;BME280;44539;42.962;1.596;2022-07-29T14:19:42;97312.09;;;21.53;78.00
58771;BME280;44539;42.962;1.596;2022-07-29T14:22:08;97305.75;;;21.48;75.26
58771;BME280;44539;42.962;1.596;2022-07-29T14:24:35;97301.47;;;21.80;74.12
58771;BME280;44539;42.962;1.596;2022-07-29T14:27:00;97307.25;;;22.18;74.29
58771;BME280;44539;42.962;1.596;2022-07-29T14:29:26;97304.63;;;22.06;74.15
58771;BME280;44539;42.962;1.596;2022-07-29T14:31:52;97309.13;;;21.84;73.18
58771;BME280;44539;42.962;1.596;2022-07-29T14:34:17;97306.38;;;21.67;75.01
58771;BME280;44539;42.962;1.596;2022-07-29T14:36:43;97311.25;;;21.53;75.79
58771;BME280;44539;42.962;1.596;2022-07-29T14:39:08;97308.88;;;21.56;76.62
58771;BME280;44539;42.962;1.596;2022-07-29T14:41:33;97307.72;;;21.52;77.02
58771;BME280;44539;42.962;1.596;2022-07-29T14:43:59;97303.63;;;21.50;77.41
58771;BME280;44539;42.962;1.596;2022-07-29T14:46:26;97312.59;;;21.27;76.91
58771;BME280;44539;42.962;1.596;2022-07-29T14:48:52;97313.69;;;21.14;78.11
58771;BME280;44539;42.962;1.596;2022-07-29T14:51:17;97308.78;;;21.11;78.99
58771;BME280;44539;42.962;1.596;2022-07-29T14:53:43;97302.44;;;21.05;77.24
58771;BME280;44539;42.962;1.596;2022-07-29T14:56:09;97295.28;;;20.99;78.48
58771;BME280;44539;42.962;1.596;2022-07-29T14:58:34;97300.34;;;21.07;81.01
58771;BME280;44539;42.962;1.596;2022-07-29T15:01:00;97308.66;;;21.06;78.93
58771;BME280;44539;42.962;1.596;2022-07-29T15:03:26;97314.78;;;21.13;77.90
58771;BME280;44539;42.962;1.596;2022-07-29T15:05:53;97311.31;;;21.29;81.26
58771;BME280;44539;42.962;1.596;2022-07-29T15:08:18;97307.00;;;21.57;79.03
58771;BME280;44539;42.962;1.596;2022-07-29T15:10:44;97304.28;;;21.86;76.82
58771;BME280;44539;42.962;1.596;2022-07-29T15:13:09;97312.06;;;21.99;71.37
58771;BME280;44539;42.962;1.596;2022-07-29T15:15:34;97313.41;;;22.13;70.71
58771;BME280;44539;42.962;1.596;2022-07-29T15:18:00;97312.09;;;22.67;71.69
58771;BME280;44539;42.962;1.596;2022-07-29T15:20:25;97315.22;;;22.97;68.35
58771;BME280;44539;42.962;1.596;2022-07-29T15:22:52;97304.53;;;22.69;69.74
58771;BME280;44539;42.962;1.596;2022-07-29T15:25:18;97308.91;;;23.09;71.31
58771;BME280;44539;42.962;1.596;2022-07-29T15:27:44;97312.03;;;23.22;72.26
58771;BME280;44539;42.962;1.596;2022-07-29T15:30:10;97303.50;;;22.92;67.82
58771;BME280;44539;42.962;1.596;2022-07-29T15:32:35;97314.31;;;22.53;71.34
58771;BME280;44539;42.962;1.596;2022-07-29T15:35:01;97315.00;;;22.26;72.68
58771;BME280;44539;42.962;1.596;2022-07-29T15:37:26;97331.31;;;22.31;71.55
58771;BME280;44539;42.962;1.596;2022-07-29T15:39:53;97332.19;;;22.20;73.23
58771;BME280;44539;42.962;1.596;2022-07-29T15:42:19;97332.41;;;22.18;72.03
58771;BME280;44539;42.962;1.596;2022-07-29T15:44:44;97326.69;;;22.32;70.79
58771;BME280;44539;42.962;1.596;2022-07-29T15:47:09;97338.16;;;22.05;71.36
58771;BME280;44539;42.962;1.596;2022-07-29T15:49:39;97339.63;;;21.96;72.25
58771;BME280;44539;42.962;1.596;2022-07-29T15:52:07;97342.94;;;21.86;72.08
58771;BME280;44539;42.962;1.596;2022-07-29T15:54:36;97344.69;;;21.92;73.75
58771;BME280;44539;42.962;1.596;2022-07-29T15:57:02;97334.44;;;21.94;73.77
58771;BME280;44539;42.962;1.596;2022-07-29T16:01:54;97340.44;;;21.68;76.08
58771;BME280;44539;42.962;1.596;2022-07-29T16:04:20;97344.81;;;21.69;76.06
58771;BME280;44539;42.962;1.596;2022-07-29T16:06:46;97347.16;;;21.65;76.48
58771;BME280;44539;42.962;1.596;2022-07-29T16:09:12;97349.28;;;21.63;76.92
58771;BME280;44539;42.962;1.596;2022-07-29T16:11:38;97340.84;;;21.59;78.67
58771;BME280;44539;42.962;1.596;2022-07-29T16:14:04;97350.75;;;21.42;76.42
58771;BME280;44539;42.962;1.596;2022-07-29T16:16:29;97344.41;;;21.36;79.88
58771;BME280;44539;42.962;1.596;2022-07-29T16:18:55;97355.25;;;21.25;76.77
58771;BME280;44539;42.962;1.596;2022-07-29T16:21:21;97364.69;;;21.10;77.78
58771;BME280;44539;42.962;1.596;2022-07-29T16:23:48;97368.66;;;21.08;78.48
